Time;durP1;ratioP1;P1;durP2;ratioP2;P2;SDS_P1;SDS_P2;PMS_P1;PMS_P2;Temp;Humidity;BMP_temperature;BMP_pressure;BME280_temperature;BME280_humidity;BME280_pressure;Samples;Min_cycle;Max_cycle;Signal;HPM_P1;HPM_P2
2022/02/11 00:06:43;;;;;;;8.07;5.73;;;6.10;99.90;;;;;;4996205;28;20629;-72
2022/02/11 00:09:09;;;;;;;8.67;6.20;;;6.10;99.90;;;;;;4993854;28;20435;-73
2022/02/11 00:11:37;;;;;;;9.20;6.23;;;6.10;99.90;;;;;;4994152;28;20426;-73
2022/02/11 00:14:05;;;;;;;11.73;6.83;;;6.10;99.90;;;;;;4993745;28;20609;-72
2022/02/11 00:16:31;;;;;;;10.20;6.37;;;6.10;99.90;;;;;;4992940;28;20431;-73
2022/02/11 00:18:59;;;;;;;9.03;6.70;;;6.10;99.90;;;;;;4993892;28;20779;-73
2022/02/11 00:21:26;;;;;;;11.37;5.67;;;6.10;99.90;;;;;;4994478;28;20471;-73
2022/02/11 00:23:52;;;;;;;8.50;5.60;;;6.10;99.90;;;;;;4994838;28;20528;-73
2022/02/11 00:26:18;;;;;;;9.20;6.10;;;6.10;99.90;;;;;;4995795;28;20764;-72
2022/02/11 00:33:57;;;;;;;7.03;5.80;;;6.10;99.90;;;;;;4995301;28;20420;-72
2022/02/11 00:36:34;;;;;;;8.60;6.60;;;6.20;99.90;;;;;;4995512;28;20929;-73
2022/02/11 00:39:17;;;;;;;8.23;6.03;;;6.10;99.90;;;;;;4995407;28;20975;-70
2022/02/11 05:32:57;;;;;;;3.40;3.10;;;2.60;99.90;;;;;;5057374;23;20250;-74
2022/02/11 05:35:23;;;;;;;4.33;3.37;;;2.60;99.90;;;;;;4993494;28;20419;-74
2022/02/11 05:37:49;;;;;;;4.70;3.60;;;2.70;99.90;;;;;;4994241;28;20549;-75
2022/02/11 05:40:15;;;;;;;4.73;3.77;;;2.70;99.90;;;;;;4994247;28;20420;-75
2022/02/11 05:42:41;;;;;;;4.03;3.63;;;2.70;99.90;;;;;;4994477;28;20810;-75
2022/02/11 05:45:06;;;;;;;4.83;3.10;;;2.70;99.90;;;;;;4993899;28;20438;-75
2022/02/11 05:47:32;;;;;;;3.07;2.87;;;2.70;99.90;;;;;;4994226;28;20180;-75
2022/02/11 05:49:57;;;;;;;3.90;3.60;;;2.70;99.90;;;;;;4993796;28;20419;-76
2022/02/11 05:52:24;;;;;;;3.60;3.00;;;2.70;99.90;;;;;;4994446;28;20192;-76
2022/02/11 05:54:49;;;;;;;4.27;3.60;;;2.70;99.90;;;;;;4993677;28;20169;-74
2022/02/11 05:57:15;;;;;;;4.23;3.20;;;2.70;99.90;;;;;;4994183;28;20483;-75
2022/02/11 05:59:40;;;;;;;5.10;4.00;;;2.70;99.90;;;;;;4993900;28;20556;-74
2022/02/11 06:02:06;;;;;;;5.63;4.17;;;2.70;99.90;;;;;;4992828;28;20195;-75
2022/02/11 06:04:31;;;;;;;6.90;4.60;;;2.80;99.90;;;;;;4993739;28;20230;-75
2022/02/11 06:06:58;;;;;;;4.17;3.80;;;2.80;99.90;;;;;;4993820;28;20183;-73
2022/02/11 06:09:24;;;;;;;4.63;4.00;;;2.80;99.90;;;;;;4993800;28;20253;-72
2022/02/11 06:11:49;;;;;;;6.07;4.40;;;2.80;99.90;;;;;;4993713;28;20401;-73
2022/02/11 06:14:17;;;;;;;4.27;3.87;;;2.80;99.90;;;;;;4993495;28;20189;-73
2022/02/11 06:16:42;;;;;;;4.90;4.00;;;2.80;99.90;;;;;;4993697;28;20198;-72
2022/02/11 06:19:08;;;;;;;5.33;3.97;;;2.70;99.90;;;;;;4993529;28;20461;-73
2022/02/11 06:21:34;;;;;;;7.47;4.50;;;2.70;99.90;;;;;;4993493;28;20210;-74
2022/02/11 06:23:59;;;;;;;4.30;3.40;;;2.70;99.90;;;;;;4993225;28;20204;-73
2022/02/11 06:26:26;;;;;;;4.60;3.77;;;2.60;99.90;;;;;;4993692;28;20177;-72
2022/02/11 06:28:52;;;;;;;4.20;3.80;;;2.60;99.90;;;;;;4993438;28;20325;-73
2022/02/11 06:31:18;;;;;;;8.20;4.60;;;2.50;99.90;;;;;;4993083;28;20471;-73
2022/02/11 06:33:47;;;;;;;6.20;3.83;;;2.50;99.90;;;;;;4993003;28;20452;-71
2022/02/11 06:36:13;;;;;;;4.57;4.13;;;2.50;99.90;;;;;;4993160;28;20511;-71
2022/02/11 06:38:39;;;;;;;4.20;3.70;;;2.50;99.90;;;;;;4993162;28;20413;-71
2022/02/11 06:41:04;;;;;;;6.50;4.40;;;2.60;99.90;;;;;;4992905;28;20503;-71
2022/02/11 06:43:31;;;;;;;4.03;3.50;;;2.60;99.90;;;;;;4992809;28;20210;-72
2022/02/11 06:45:57;;;;;;;11.27;5.40;;;2.50;99.90;;;;;;4993125;28;20180;-71
2022/02/11 06:48:26;;;;;;;8.70;5.30;;;2.50;99.90;;;;;;4993151;28;20409;-70
2022/02/11 06:50:52;;;;;;;7.77;4.03;;;2.40;99.90;;;;;;4992623;28;20985;-71
2022/02/11 06:53:18;;;;;;;4.63;4.10;;;2.40;99.90;;;;;;4991852;28;20506;-71
2022/02/11 06:55:44;;;;;;;7.70;5.43;;;2.50;99.90;;;;;;4992902;28;20427;-72
2022/02/11 06:58:10;;;;;;;14.07;5.47;;;2.40;99.90;;;;;;4992684;28;20426;-71
2022/02/11 07:00:38;;;;;;;4.90;4.43;;;2.40;99.90;;;;;;4992351;28;20176;-72
2022/02/11 07:03:04;;;;;;;7.73;4.47;;;2.40;99.90;;;;;;4992282;28;20433;-71
2022/02/11 07:05:33;;;;;;;8.23;4.70;;;2.30;99.90;;;;;;4987730;28;20427;-69
2022/02/11 07:07:58;;;;;;;5.60;3.90;;;2.30;99.90;;;;;;4973140;28;20470;-71
2022/02/11 07:10:24;;;;;;;5.97;4.30;;;2.30;99.90;;;;;;4972909;28;20412;-72
2022/02/11 07:12:49;;;;;;;5.13;4.37;;;2.30;99.90;;;;;;4972320;28;20184;-72
2022/02/11 07:15:15;;;;;;;5.10;4.27;;;2.30;99.90;;;;;;4972737;28;20177;-71
2022/02/11 07:17:40;;;;;;;7.67;4.53;;;2.20;99.90;;;;;;4973219;28;20875;-72
2022/02/11 07:20:07;;;;;;;5.50;4.20;;;2.20;99.90;;;;;;4972716;28;20209;-71
2022/02/11 07:22:37;;;;;;;6.80;5.03;;;2.30;99.90;;;;;;4972971;28;20207;-71
2022/02/11 07:25:05;;;;;;;5.33;3.90;;;2.30;99.90;;;;;;4972587;28;20435;-70
2022/02/11 07:27:31;;;;;;;10.10;4.00;;;2.30;99.90;;;;;;4973055;28;20823;-71
2022/02/11 07:29:56;;;;;;;7.20;3.87;;;2.40;99.90;;;;;;4972546;28;20418;-71
2022/02/11 07:32:24;;;;;;;4.17;3.50;;;2.40;99.90;;;;;;4970186;28;20216;-70
2022/02/11 07:34:49;;;;;;;4.43;3.40;;;2.40;99.90;;;;;;4972724;28;20172;-70
2022/02/11 07:37:15;;;;;;;5.80;3.90;;;2.60;99.90;;;;;;4972207;28;20430;-71
2022/02/11 07:39:40;;;;;;;5.10;3.17;;;2.80;99.90;;;;;;4970783;28;20184;-72
2022/02/11 07:42:06;;;;;;;2.80;2.60;;;3.60;99.90;;;;;;4972471;28;20724;-72
2022/02/11 07:44:31;;;;;;;2.50;2.30;;;4.90;99.90;;;;;;4972359;28;20223;-70
2022/02/11 07:46:57;;;;;;;3.43;2.23;;;6.50;99.90;;;;;;4972631;28;20264;-72
2022/02/11 07:49:22;;;;;;;3.07;2.87;;;7.60;99.90;;;;;;4972354;28;20177;-71
2022/02/11 07:51:48;;;;;;;2.73;1.97;;;8.80;99.90;;;;;;4972445;28;20612;-71
2022/02/11 07:54:13;;;;;;;2.33;2.13;;;9.80;99.90;;;;;;4972289;28;20180;-73
2022/02/11 07:56:39;;;;;;;2.93;2.40;;;10.30;99.90;;;;;;4972209;28;20427;-71
2022/02/11 07:59:05;;;;;;;3.87;2.43;;;10.90;99.90;;;;;;4963048;28;20184;-72
2022/02/11 08:01:30;;;;;;;4.50;2.40;;;10.70;99.90;;;;;;4971247;28;20703;-71
2022/02/11 08:03:57;;;;;;;5.50;2.80;;;11.20;99.90;;;;;;4971839;28;20262;-71
2022/02/11 08:06:22;;;;;;;7.60;2.70;;;11.50;99.90;;;;;;4972411;28;20168;-72
2022/02/11 08:08:48;;;;;;;2.20;2.00;;;11.30;99.90;;;;;;4972378;28;20418;-71
2022/02/11 08:11:13;;;;;;;2.63;2.43;;;11.30;99.90;;;;;;4971649;28;20208;-71
2022/02/11 08:13:39;;;;;;;3.73;2.50;;;11.30;99.90;;;;;;4972129;28;20241;-73
2022/02/11 08:16:06;;;;;;;4.90;3.10;;;11.10;99.90;;;;;;4972098;28;20227;-73
2022/02/11 08:18:32;;;;;;;2.97;2.50;;;10.90;99.90;;;;;;4972384;28;20179;-71
2022/02/11 08:20:58;;;;;;;9.07;3.57;;;10.50;99.90;;;;;;4971242;28;20446;-71
2022/02/11 08:23:25;;;;;;;7.77;3.17;;;9.90;99.90;;;;;;4968531;28;20489;-71
2022/02/11 08:25:50;;;;;;;4.77;2.30;;;9.30;99.90;;;;;;4973264;28;20761;-71
2022/02/11 08:28:16;;;;;;;5.73;3.53;;;8.30;99.90;;;;;;4973912;28;20511;-71
2022/02/11 08:30:42;;;;;;;3.17;2.33;;;7.50;99.90;;;;;;4975670;28;20177;-72
2022/02/11 08:33:08;;;;;;;5.70;2.60;;;7.00;99.90;;;;;;4975645;28;20194;-72
2022/02/11 08:35:33;;;;;;;6.50;2.97;;;6.50;99.90;;;;;;4975205;28;20417;-72
2022/02/11 08:37:59;;;;;;;4.87;3.30;;;6.30;99.90;;;;;;4975640;28;20177;-70
2022/02/11 08:40:24;;;;;;;6.63;3.37;;;6.30;99.90;;;;;;4975765;28;20299;-72
2022/02/11 08:42:51;;;;;;;6.87;3.70;;;6.40;99.90;;;;;;4975570;28;20176;-72
2022/02/11 08:45:17;;;;;;;9.60;3.10;;;6.40;99.90;;;;;;4975527;28;20255;-70
2022/02/11 08:47:42;;;;;;;4.03;3.00;;;6.40;99.90;;;;;;4975896;28;20778;-72
2022/02/11 08:50:14;;;;;;;4.90;2.90;;;6.70;99.90;;;;;;4975479;28;20427;-72
2022/02/11 08:52:40;;;;;;;6.10;3.50;;;6.90;99.90;;;;;;4975812;28;20205;-72
2022/02/11 08:55:06;;;;;;;6.03;2.90;;;6.90;99.90;;;;;;4975262;28;20423;-72
2022/02/11 08:57:32;;;;;;;3.07;2.70;;;6.80;99.90;;;;;;4975488;28;20421;-71
2022/02/11 08:59:58;;;;;;;3.00;2.77;;;6.80;99.90;;;;;;4975355;28;20422;-72
2022/02/11 09:02:23;;;;;;;2.83;2.63;;;6.80;99.90;;;;;;4975455;28;20437;-70
2022/02/11 09:04:51;;;;;;;5.40;3.00;;;6.80;99.90;;;;;;4975118;28;20456;-71
2022/02/11 09:07:18;;;;;;;3.53;2.80;;;6.90;99.90;;;;;;4975501;28;20210;-71
2022/02/11 09:09:43;;;;;;;5.10;3.90;;;6.50;99.90;;;;;;4975296;28;20470;-71
2022/02/11 09:12:09;;;;;;;4.50;2.77;;;6.70;99.90;;;;;;4973850;28;20526;-72
2022/02/11 09:14:35;;;;;;;9.03;2.77;;;6.90;99.90;;;;;;4975128;28;20286;-72
2022/02/11 09:17:00;;;;;;;4.03;2.47;;;7.20;99.90;;;;;;4975274;28;20185;-71
2022/02/11 09:19:26;;;;;;;2.87;2.63;;;7.20;99.90;;;;;;4975188;28;20271;-70
2022/02/11 09:21:51;;;;;;;4.70;2.87;;;7.40;99.90;;;;;;4975171;28;20203;-71
2022/02/11 09:24:17;;;;;;;10.03;3.00;;;7.40;99.90;;;;;;4974854;28;20307;-71
2022/02/11 09:26:43;;;;;;;3.90;2.50;;;7.70;99.90;;;;;;4975293;28;20232;-71
2022/02/11 09:29:08;;;;;;;8.57;2.80;;;8.10;99.90;;;;;;4974788;28;20184;-71
2022/02/11 09:31:34;;;;;;;4.97;2.57;;;8.30;99.90;;;;;;4974929;28;20289;-71
2022/02/11 09:34:04;;;;;;;6.70;2.70;;;8.40;99.90;;;;;;4974759;28;20194;-72
2022/02/11 09:36:33;;;;;;;5.50;3.10;;;8.40;99.90;;;;;;4973899;28;20239;-72
2022/02/11 09:39:00;;;;;;;4.30;3.23;;;8.60;99.90;;;;;;4974850;28;20476;-69
2022/02/11 09:41:27;;;;;;;2.43;1.87;;;8.60;99.90;;;;;;4974654;28;20552;-71
2022/02/11 09:43:54;;;;;;;2.27;2.17;;;9.00;99.90;;;;;;4974422;28;20469;-72
2022/02/11 09:46:20;;;;;;;3.30;2.00;;;9.10;99.90;;;;;;4974933;28;20426;-71
2022/02/11 09:48:46;;;;;;;4.70;2.10;;;8.80;99.90;;;;;;4974867;28;20935;-72
2022/02/11 09:51:12;;;;;;;5.93;2.17;;;8.50;99.90;;;;;;4974418;28;20480;-71
2022/02/11 09:53:38;;;;;;;7.70;2.07;;;8.20;99.90;;;;;;4974672;28;20186;-70
2022/02/11 09:56:04;;;;;;;6.57;2.00;;;8.40;99.90;;;;;;4974512;28;20502;-72
2022/02/11 09:58:30;;;;;;;4.40;2.30;;;8.60;99.90;;;;;;4974607;28;20710;-71
2022/02/11 10:00:56;;;;;;;4.03;2.00;;;8.90;99.90;;;;;;4974369;28;20851;-71
2022/02/11 10:03:32;;;;;;;7.23;2.30;;;9.20;99.90;;;;;;4973991;28;20217;-71
2022/02/11 10:06:03;;;;;;;3.30;1.60;;;9.30;99.90;;;;;;4974584;28;20547;-71
2022/02/11 10:08:31;;;;;;;5.43;2.07;;;9.00;99.90;;;;;;4974467;28;20925;-72
2022/02/11 10:10:59;;;;;;;3.83;2.13;;;9.00;99.90;;;;;;4974182;28;20462;-72
2022/02/11 10:13:28;;;;;;;6.23;2.80;;;9.50;99.90;;;;;;4973880;28;20431;-71
2022/02/11 10:16:09;;;;;;;3.23;2.23;;;9.40;99.90;;;;;;4974340;28;20511;-71
2022/02/11 10:18:43;;;;;;;6.47;1.87;;;9.70;99.90;;;;;;4974261;28;20411;-71
2022/02/11 10:21:20;;;;;;;4.00;2.20;;;9.70;99.90;;;;;;4972511;28;20823;-71
2022/02/11 10:23:54;;;;;;;4.10;1.97;;;9.90;99.90;;;;;;4973837;28;20461;-71
2022/02/11 10:26:22;;;;;;;2.97;1.43;;;9.90;99.90;;;;;;4974033;28;20426;-71
2022/02/11 10:28:49;;;;;;;2.97;1.87;;;9.60;99.90;;;;;;4973991;28;20507;-71
2022/02/11 10:31:23;;;;;;;3.00;1.80;;;9.50;99.90;;;;;;4973461;28;20917;-72
2022/02/11 10:33:55;;;;;;;3.90;2.07;;;8.70;99.90;;;;;;4973815;28;20432;-72
2022/02/11 10:36:29;;;;;;;3.70;1.60;;;8.30;99.90;;;;;;4973794;28;20482;-71
2022/02/11 10:39:03;;;;;;;6.40;2.10;;;7.90;99.90;;;;;;4973816;28;20454;-72
2022/02/11 10:41:29;;;;;;;4.13;2.07;;;7.80;99.90;;;;;;4973782;28;20443;-72
2022/02/11 10:44:03;;;;;;;4.87;1.90;;;8.20;99.90;;;;;;4972175;28;20499;-71
2022/02/11 10:46:33;;;;;;;3.90;2.30;;;8.40;99.90;;;;;;4973498;28;20487;-71
2022/02/11 10:48:59;;;;;;;5.00;2.00;;;8.60;99.90;;;;;;4973422;28;20418;-71
2022/02/11 10:51:25;;;;;;;5.03;1.90;;;8.80;99.90;;;;;;4973310;28;20432;-71
2022/02/11 10:53:51;;;;;;;5.77;2.60;;;9.20;99.90;;;;;;4973323;28;20422;-71
2022/02/11 10:56:16;;;;;;;4.30;2.10;;;9.30;99.90;;;;;;4973138;28;20249;-72
2022/02/11 10:58:53;;;;;;;4.13;2.43;;;9.80;99.90;;;;;;4973586;28;20241;-71
2022/02/11 11:01:19;;;;;;;13.73;2.30;;;10.10;99.90;;;;;;4973137;28;20202;-72
2022/02/11 11:03:46;;;;;;;4.30;2.07;;;10.50;99.90;;;;;;4973202;28;20554;-71
2022/02/11 11:06:13;;;;;;;6.63;2.40;;;10.70;99.90;;;;;;4973082;28;20454;-72
2022/02/11 11:08:41;;;;;;;6.97;2.47;;;10.40;99.90;;;;;;4973341;28;20916;-73
2022/02/11 11:11:09;;;;;;;4.47;2.30;;;10.50;99.90;;;;;;4972817;28;20452;-72
2022/02/11 11:13:39;;;;;;;3.67;2.27;;;10.50;99.90;;;;;;4972917;28;20426;-71
2022/02/11 11:16:08;;;;;;;2.87;1.93;;;10.50;99.90;;;;;;4972969;28;20786;-72
2022/02/11 11:18:36;;;;;;;5.30;2.13;;;10.30;99.90;;;;;;4973240;28;20430;-73
2022/02/11 11:21:04;;;;;;;6.77;2.33;;;10.10;99.90;;;;;;4972734;28;20445;-71
2022/02/11 11:23:31;;;;;;;4.43;2.50;;;9.90;99.90;;;;;;4972834;28;20474;-71
2022/02/11 11:26:09;;;;;;;5.33;2.40;;;10.00;99.90;;;;;;4972963;28;20473;-71
2022/02/11 11:28:43;;;;;;;7.70;2.20;;;10.60;99.90;;;;;;4972966;28;20504;-71
2022/02/11 11:31:29;;;;;;;6.17;2.03;;;10.60;99.90;;;;;;4972343;28;20441;-71
2022/02/11 11:34:13;;;;;;;7.33;2.73;;;9.60;99.90;;;;;;4971012;28;20437;-71
2022/02/11 11:36:48;;;;;;;2.23;1.60;;;9.00;99.90;;;;;;4972896;28;20419;-71
2022/02/11 11:39:14;;;;;;;6.30;2.27;;;8.70;99.90;;;;;;4972401;28;20416;-70
2022/02/11 11:41:40;;;;;;;3.90;2.50;;;8.50;99.90;;;;;;4972660;28;20467;-71
2022/02/11 11:44:18;;;;;;;4.37;2.50;;;8.10;99.90;;;;;;4972169;28;20512;-71
2022/02/11 11:46:48;;;;;;;3.40;2.30;;;7.90;99.90;;;;;;4973065;28;20438;-71
2022/02/11 11:49:15;;;;;;;3.00;2.10;;;7.60;99.90;;;;;;4972215;28;20414;-71
2022/02/11 11:51:40;;;;;;;7.17;2.10;;;7.40;99.90;;;;;;4972554;28;20967;-70
2022/02/11 11:56:52;;;;;;;4.10;1.30;;;8.20;99.90;;;;;;4972641;28;20182;-71
2022/02/11 11:59:21;;;;;;;5.80;2.90;;;8.40;99.90;;;;;;4971755;28;20794;-72
2022/02/11 12:01:54;;;;;;;6.23;2.03;;;8.20;99.90;;;;;;4972291;28;20444;-71
2022/02/11 12:04:25;;;;;;;3.00;1.23;;;8.20;99.90;;;;;;4972077;28;20561;-71
2022/02/11 12:06:55;;;;;;;3.30;1.80;;;8.10;99.90;;;;;;4972620;28;20416;-71
2022/02/11 12:09:20;;;;;;;6.33;1.27;;;8.00;99.90;;;;;;4972446;28;20426;-70
2022/02/11 12:11:47;;;;;;;4.53;1.60;;;8.00;99.90;;;;;;4972386;28;20531;-71
2022/02/11 12:14:15;;;;;;;2.20;1.60;;;8.00;99.90;;;;;;4972154;28;20186;-71
2022/02/11 12:16:40;;;;;;;5.40;1.90;;;8.00;99.90;;;;;;4972379;28;20446;-70
2022/02/11 12:19:06;;;;;;;4.53;1.70;;;7.90;99.90;;;;;;4972167;28;20457;-71
2022/02/11 12:21:33;;;;;;;5.03;2.30;;;8.00;99.90;;;;;;4972123;28;20208;-72
2022/02/11 12:29:28;;;;;;;3.27;1.93;;;7.80;99.90;;;;;;4968772;28;20453;-72
2022/02/11 12:31:55;;;;;;;2.60;1.77;;;7.70;99.90;;;;;;4970280;28;20457;-71
2022/02/11 12:34:21;;;;;;;4.63;1.73;;;7.60;99.90;;;;;;4970021;28;20181;-71
2022/02/11 12:36:47;;;;;;;2.07;1.50;;;7.50;99.90;;;;;;4971248;28;20422;-71
2022/02/11 12:39:20;;;;;;;8.50;1.67;;;7.30;99.90;;;;;;4969978;28;20913;-71
2022/02/11 12:41:49;;;;;;;7.30;1.97;;;7.40;99.90;;;;;;4972215;28;20444;-71
2022/02/11 12:44:32;;;;;;;3.37;2.00;;;7.30;99.90;;;;;;4971699;28;20893;-71
2022/02/11 12:46:59;;;;;;;2.87;1.80;;;7.30;99.90;;;;;;4971061;28;20451;-71
2022/02/11 12:49:25;;;;;;;3.63;2.00;;;7.30;99.90;;;;;;4969785;28;21118;-71
2022/02/11 12:51:56;;;;;;;5.10;2.27;;;7.10;99.90;;;;;;4972219;28;20433;-70
2022/02/11 12:54:22;;;;;;;3.00;1.93;;;7.10;99.90;;;;;;4971589;28;20187;-71
2022/02/11 12:56:49;;;;;;;4.10;1.80;;;7.10;99.90;;;;;;4972122;28;20432;-70
2022/02/11 12:59:15;;;;;;;3.93;1.97;;;7.10;99.90;;;;;;4971734;28;20181;-71
2022/02/11 13:01:41;;;;;;;3.37;2.37;;;7.10;99.90;;;;;;4972040;28;20984;-71
2022/02/11 13:04:07;;;;;;;4.47;2.00;;;7.00;99.90;;;;;;4971667;28;20465;-71
2022/02/11 13:06:33;;;;;;;2.67;2.10;;;6.90;99.90;;;;;;4972049;28;20269;-71
2022/02/11 13:09:06;;;;;;;5.13;2.13;;;6.80;99.90;;;;;;4970007;28;20647;-71
2022/02/11 13:11:32;;;;;;;3.57;1.90;;;6.90;99.90;;;;;;4965568;28;20445;-70
2022/02/11 13:14:04;;;;;;;4.07;2.63;;;6.90;99.90;;;;;;4973198;28;20498;-70
2022/02/11 13:16:37;;;;;;;2.30;1.70;;;6.80;99.90;;;;;;4968282;28;20427;-68
2022/02/11 13:19:17;;;;;;;4.17;1.80;;;6.70;99.90;;;;;;4967527;28;20434;-70
2022/02/11 13:21:44;;;;;;;2.70;1.83;;;6.60;99.90;;;;;;4974571;28;20448;-69
2022/02/11 13:24:10;;;;;;;2.90;2.60;;;6.60;99.90;;;;;;4971925;28;21079;-71
2022/02/11 13:26:37;;;;;;;3.20;1.50;;;6.70;99.90;;;;;;4974830;28;20845;-72
2022/02/11 13:29:10;;;;;;;3.43;1.90;;;6.80;99.90;;;;;;4974806;28;20422;-71
2022/02/11 13:31:49;;;;;;;7.50;3.70;;;6.90;99.90;;;;;;4972227;28;20471;-72
2022/02/11 13:34:15;;;;;;;5.20;2.10;;;6.90;99.90;;;;;;4973318;28;20491;-69
2022/02/11 13:36:45;;;;;;;2.77;1.70;;;6.80;99.90;;;;;;4974659;28;20428;-70
2022/02/11 13:39:25;;;;;;;6.57;2.50;;;6.70;99.90;;;;;;4969003;28;20473;-70
2022/02/11 13:41:51;;;;;;;4.70;2.30;;;6.70;99.90;;;;;;4968609;28;20444;-70
2022/02/11 13:44:16;;;;;;;2.23;2.03;;;6.60;99.90;;;;;;4965478;28;20486;-71
2022/02/11 13:46:50;;;;;;;2.17;1.77;;;6.50;99.90;;;;;;4973143;28;20256;-70
2022/02/11 13:49:16;;;;;;;2.07;1.70;;;6.50;99.90;;;;;;4966644;28;20192;-70
2022/02/11 13:51:43;;;;;;;6.10;1.70;;;6.50;99.90;;;;;;4966279;28;20463;-70
2022/02/11 13:54:20;;;;;;;6.37;1.97;;;6.40;99.90;;;;;;4971301;28;21037;-71
2022/02/11 13:56:48;;;;;;;2.37;1.80;;;6.30;99.90;;;;;;4973982;28;20927;-70
2022/02/11 13:59:16;;;;;;;2.90;2.10;;;6.30;99.90;;;;;;4973863;28;20425;-72
2022/02/11 14:01:48;;;;;;;2.37;1.80;;;6.20;99.90;;;;;;4974143;28;20458;-69
2022/02/11 14:04:19;;;;;;;5.73;2.30;;;6.10;99.90;;;;;;4969214;28;20474;-71
2022/02/11 14:06:52;;;;;;;4.33;2.43;;;6.10;99.90;;;;;;4969594;28;20473;-71
2022/02/11 14:09:37;;;;;;;2.23;1.57;;;6.20;99.90;;;;;;4968505;28;20487;-71
2022/02/11 14:12:26;;;;;;;2.63;2.00;;;6.30;99.90;;;;;;4972757;28;20960;-70
2022/02/11 14:14:59;;;;;;;4.20;1.37;;;6.20;99.90;;;;;;4973655;28;20920;-70
2022/02/11 14:17:29;;;;;;;2.50;1.97;;;6.30;99.90;;;;;;4972683;28;21008;-70
2022/02/11 14:19:55;;;;;;;6.00;2.00;;;6.30;99.90;;;;;;4970942;28;20945;-70
2022/02/11 14:22:20;;;;;;;6.50;2.60;;;6.40;99.90;;;;;;4972041;28;20526;-70
2022/02/11 14:24:46;;;;;;;1.40;1.30;;;6.40;99.90;;;;;;4973409;28;20573;-70
2022/02/11 14:27:11;;;;;;;2.00;1.37;;;6.50;99.90;;;;;;4973654;28;20194;-70
2022/02/11 14:29:38;;;;;;;2.20;1.67;;;6.50;99.90;;;;;;4973812;28;20180;-70
2022/02/11 14:32:05;;;;;;;2.33;1.73;;;6.60;99.90;;;;;;4970951;28;20215;-71
2022/02/11 14:34:31;;;;;;;4.27;1.60;;;6.70;99.90;;;;;;4972909;28;20491;-71
2022/02/11 14:36:56;;;;;;;5.93;2.00;;;6.80;99.90;;;;;;4973613;28;20462;-71
2022/02/11 14:39:22;;;;;;;4.40;2.33;;;6.90;99.90;;;;;;4966616;28;20424;-71
2022/02/11 14:41:51;;;;;;;1.73;1.63;;;6.90;99.90;;;;;;4972874;28;20206;-72
2022/02/11 14:44:21;;;;;;;7.57;2.90;;;7.00;99.90;;;;;;4973108;28;20204;-71
2022/02/11 14:46:50;;;;;;;3.73;2.30;;;7.10;99.90;;;;;;4975990;28;20452;-72
2022/02/11 14:49:17;;;;;;;3.57;1.80;;;7.10;99.90;;;;;;4974215;28;20436;-68
2022/02/11 14:51:44;;;;;;;3.30;1.47;;;7.10;99.90;;;;;;4967455;28;20453;-71
2022/02/11 14:54:11;;;;;;;2.43;1.93;;;7.10;99.90;;;;;;4966922;28;20421;-71
2022/02/11 14:56:41;;;;;;;1.60;1.47;;;7.00;99.90;;;;;;4967164;28;20521;-70
2022/02/11 14:59:08;;;;;;;3.57;1.67;;;6.90;99.90;;;;;;4967339;28;20431;-71
2022/02/11 15:01:35;;;;;;;7.60;1.77;;;6.90;99.90;;;;;;4973334;28;20790;-70
2022/02/11 15:04:00;;;;;;;4.50;1.43;;;6.90;99.90;;;;;;4972965;28;20473;-71
2022/02/11 15:06:26;;;;;;;2.27;2.07;;;6.90;99.90;;;;;;4973077;28;20456;-70
2022/02/11 15:08:51;;;;;;;5.10;1.70;;;6.90;99.90;;;;;;4970789;28;20275;-71
2022/02/11 15:11:17;;;;;;;3.50;1.60;;;6.80;99.90;;;;;;4964105;28;20280;-70
2022/02/11 15:13:43;;;;;;;3.00;1.60;;;6.70;99.90;;;;;;4972617;28;20215;-71
2022/02/11 15:16:08;;;;;;;3.80;1.97;;;6.60;99.90;;;;;;4961083;28;20230;-70
2022/02/11 15:18:34;;;;;;;4.53;1.83;;;6.60;99.90;;;;;;4963639;28;20220;-71
2022/02/11 15:21:05;;;;;;;1.67;1.57;;;6.40;99.90;;;;;;4972417;28;20315;-71
2022/02/11 15:23:35;;;;;;;12.30;2.90;;;6.40;99.90;;;;;;4955360;28;20282;-71
2022/02/11 15:26:02;;;;;;;3.73;1.60;;;6.20;99.90;;;;;;4953503;29;20420;-71
2022/02/11 15:28:29;;;;;;;4.80;1.60;;;6.10;99.90;;;;;;4953606;29;20448;-70
2022/02/11 15:30:54;;;;;;;8.80;1.57;;;6.20;99.90;;;;;;4953328;29;20927;-70
2022/02/11 15:33:20;;;;;;;4.80;2.50;;;6.10;99.90;;;;;;4953189;28;20411;-71
2022/02/11 15:35:46;;;;;;;3.23;1.30;;;6.10;99.90;;;;;;4958750;28;20183;-70
2022/02/11 15:38:11;;;;;;;6.27;2.07;;;6.00;99.90;;;;;;4973015;28;20199;-71
2022/02/11 15:40:37;;;;;;;3.43;2.20;;;6.00;99.90;;;;;;4972574;28;20185;-69
2022/02/11 15:43:02;;;;;;;4.73;2.13;;;6.00;99.90;;;;;;4972858;28;20714;-71
2022/02/11 15:45:28;;;;;;;4.47;2.13;;;5.90;99.90;;;;;;4972055;28;20212;-71
2022/02/11 15:47:54;;;;;;;4.43;1.60;;;5.90;99.90;;;;;;4972717;28;20541;-71
2022/02/11 15:50:19;;;;;;;6.20;1.63;;;5.80;99.90;;;;;;4972715;28;20264;-70
2022/02/11 15:52:45;;;;;;;8.80;2.00;;;5.80;99.90;;;;;;4972514;28;20199;-69
2022/02/11 15:55:11;;;;;;;2.87;1.90;;;5.70;99.90;;;;;;4972634;28;20658;-71
2022/02/11 15:57:38;;;;;;;3.20;1.40;;;5.70;99.90;;;;;;4972703;28;20500;-71
2022/02/11 16:00:05;;;;;;;6.67;1.90;;;5.70;99.90;;;;;;4972622;28;20582;-71
2022/02/11 16:02:30;;;;;;;6.23;2.27;;;5.70;99.90;;;;;;4972421;28;20523;-71
2022/02/11 16:04:56;;;;;;;2.70;1.93;;;5.70;99.90;;;;;;4972187;28;20578;-70
2022/02/11 16:07:22;;;;;;;6.13;2.10;;;5.70;99.90;;;;;;4972710;28;20184;-71
2022/02/11 16:09:49;;;;;;;4.17;2.17;;;5.70;99.90;;;;;;4972863;28;20176;-70
2022/02/11 16:12:15;;;;;;;8.27;2.40;;;5.70;99.90;;;;;;4972357;28;21025;-70
2022/02/11 16:14:40;;;;;;;7.90;2.40;;;5.70;99.90;;;;;;4972250;28;20507;-70
2022/02/11 16:17:09;;;;;;;3.20;1.93;;;5.70;99.90;;;;;;4972529;28;20215;-68
2022/02/11 16:19:34;;;;;;;7.50;2.47;;;5.60;99.90;;;;;;4972097;28;20187;-70
2022/02/11 16:22:01;;;;;;;5.57;2.13;;;5.60;99.90;;;;;;4970980;28;20462;-71
2022/02/11 16:24:26;;;;;;;4.80;2.30;;;5.60;99.90;;;;;;4971819;28;20230;-71
2022/02/11 16:26:52;;;;;;;4.03;2.10;;;5.60;99.90;;;;;;4972479;28;20787;-70
2022/02/11 16:29:18;;;;;;;11.27;2.17;;;5.60;99.90;;;;;;4972176;28;20246;-70
2022/02/11 16:31:44;;;;;;;6.50;2.40;;;5.60;99.90;;;;;;4972063;28;20456;-70
2022/02/11 16:34:10;;;;;;;5.70;2.90;;;5.60;99.90;;;;;;4972003;28;20184;-70
2022/02/11 16:36:39;;;;;;;4.97;2.70;;;5.40;99.90;;;;;;4972294;28;20548;-70
2022/02/11 16:39:08;;;;;;;3.50;3.13;;;5.30;99.90;;;;;;4972173;28;20249;-71
2022/02/11 16:41:34;;;;;;;3.80;3.30;;;5.20;99.90;;;;;;4972061;28;20485;-70
2022/02/11 16:44:00;;;;;;;7.07;3.20;;;5.00;99.90;;;;;;4972009;28;20460;-70
2022/02/11 16:46:25;;;;;;;6.40;2.80;;;4.90;99.90;;;;;;4974518;28;20458;-71
2022/02/11 16:48:52;;;;;;;3.77;2.57;;;4.70;99.90;;;;;;4976458;28;20214;-71
2022/02/11 16:51:17;;;;;;;8.63;3.90;;;4.70;99.90;;;;;;4974170;28;20202;-71
2022/02/11 16:53:43;;;;;;;5.17;2.63;;;4.60;99.90;;;;;;4975667;28;20419;-73
2022/02/11 16:56:09;;;;;;;5.07;2.27;;;4.50;99.90;;;;;;4975710;28;20180;-74
2022/02/11 16:58:35;;;;;;;7.03;3.50;;;4.50;99.90;;;;;;4975889;28;20177;-72
2022/02/11 17:01:00;;;;;;;5.23;2.47;;;4.40;99.90;;;;;;4975499;28;20844;-73
2022/02/11 17:03:26;;;;;;;9.87;3.70;;;4.30;99.90;;;;;;4975280;28;20180;-72
2022/02/11 17:05:51;;;;;;;3.73;3.40;;;4.10;99.90;;;;;;4975666;28;20175;-73
2022/02/11 17:08:18;;;;;;;3.40;2.00;;;4.10;99.90;;;;;;4975553;28;20188;-72
2022/02/11 17:10:44;;;;;;;8.33;3.00;;;4.10;99.90;;;;;;4975411;28;20173;-73
2022/02/11 17:13:10;;;;;;;7.37;3.50;;;4.10;99.90;;;;;;4975467;28;20423;-72
2022/02/11 17:15:36;;;;;;;2.83;2.63;;;4.10;99.90;;;;;;4975608;28;20419;-72
2022/02/11 17:18:01;;;;;;;7.60;3.00;;;4.10;99.90;;;;;;4975510;28;20478;-73
2022/02/11 17:20:28;;;;;;;3.27;2.57;;;4.10;99.90;;;;;;4975183;28;20190;-72
2022/02/11 17:22:54;;;;;;;4.70;3.30;;;4.10;99.90;;;;;;4975068;28;20221;-74
2022/02/11 17:25:19;;;;;;;8.73;3.00;;;4.10;99.90;;;;;;4975345;28;20825;-71
2022/02/11 17:27:45;;;;;;;6.97;3.03;;;4.00;99.90;;;;;;4975290;28;20257;-72
2022/02/11 17:30:12;;;;;;;5.83;2.80;;;4.00;99.90;;;;;;4975078;28;20758;-72
2022/02/11 17:32:38;;;;;;;7.90;3.27;;;4.00;99.90;;;;;;4974994;28;20215;-72
2022/02/11 17:35:05;;;;;;;7.50;3.57;;;4.00;99.90;;;;;;4973647;28;20430;-72
2022/02/11 17:37:30;;;;;;;7.13;3.10;;;4.00;99.90;;;;;;4974970;28;20452;-72
2022/02/11 17:39:56;;;;;;;6.27;3.33;;;4.00;99.90;;;;;;4974994;28;20517;-71
2022/02/11 17:42:22;;;;;;;4.03;2.40;;;4.10;99.90;;;;;;4974888;28;20648;-72
2022/02/11 17:44:47;;;;;;;4.07;3.17;;;4.00;99.90;;;;;;4974690;28;20216;-72
2022/02/11 17:47:13;;;;;;;7.30;4.10;;;3.90;99.90;;;;;;4974834;28;20174;-72
2022/02/11 17:49:40;;;;;;;6.70;3.37;;;3.90;99.90;;;;;;4974836;28;20238;-71
2022/02/11 17:52:06;;;;;;;8.33;3.50;;;3.80;99.90;;;;;;4973395;28;20416;-74
2022/02/11 17:54:31;;;;;;;12.40;4.70;;;3.80;99.90;;;;;;4974393;28;20853;-72
2022/02/11 17:56:57;;;;;;;6.47;5.87;;;3.70;99.90;;;;;;4974054;28;20190;-72
2022/02/11 17:59:23;;;;;;;7.97;6.30;;;3.60;99.90;;;;;;4974506;28;20178;-72
2022/02/11 18:01:50;;;;;;;4.07;3.67;;;3.60;99.90;;;;;;4972244;28;20812;-73
2022/02/11 18:04:16;;;;;;;8.87;5.33;;;3.50;99.90;;;;;;4973669;28;20513;-72
2022/02/11 18:06:42;;;;;;;9.23;6.07;;;3.50;99.90;;;;;;4973933;28;20473;-72